sensor_id;sensor_type;location;lat;lon;timestamp;P1;durP1;ratioP1;P2;durP2;ratioP2
49800;SDS011;35698;50.232;30.540;2023-04-24T05:22:52;11.24;;;7.85;;
49800;SDS011;35698;50.232;30.540;2023-04-24T05:24:04;7.97;;;6.78;;
49800;SDS011;35698;50.232;30.540;2023-04-24T05:25:08;13.78;;;7.75;;
49800;SDS011;35698;50.232;30.540;2023-04-24T05:26:13;12.81;;;7.55;;
49800;SDS011;35698;50.232;30.540;2023-04-24T05:27:24;12.36;;;7.93;;
49800;SDS011;35698;50.232;30.540;2023-04-24T05:28:28;12.88;;;7.07;;
49800;SDS011;35698;50.232;30.540;2023-04-24T05:29:31;9.59;;;6.67;;
49800;SDS011;35698;50.232;30.540;2023-04-24T05:30:34;11.91;;;6.39;;
49800;SDS011;35698;50.232;30.540;2023-04-24T05:31:39;10.52;;;6.55;;
49800;SDS011;35698;50.232;30.540;2023-04-24T05:32:42;12.13;;;6.67;;
49800;SDS011;35698;50.232;30.540;2023-04-24T05:33:56;11.05;;;6.51;;
49800;SDS011;35698;50.232;30.540;2023-04-24T05:35:01;12.52;;;7.50;;
49800;SDS011;35698;50.232;30.540;2023-04-24T05:36:20;11.11;;;6.92;;
49800;SDS011;35698;50.232;30.540;2023-04-24T05:37:27;10.17;;;6.23;;
49800;SDS011;35698;50.232;30.540;2023-04-24T05:38:42;9.17;;;5.64;;
49800;SDS011;35698;50.232;30.540;2023-04-24T05:39:46;7.74;;;5.34;;
49800;SDS011;35698;50.232;30.540;2023-04-24T05:41:09;11.20;;;6.26;;
49800;SDS011;35698;50.232;30.540;2023-04-24T05:42:12;8.36;;;5.12;;
49800;SDS011;35698;50.232;30.540;2023-04-24T05:43:27;8.25;;;6.20;;
49800;SDS011;35698;50.232;30.540;2023-04-24T05:44:31;7.47;;;5.39;;
49800;SDS011;35698;50.232;30.540;2023-04-24T05:45:44;10.98;;;5.98;;
49800;SDS011;35698;50.232;30.540;2023-04-24T05:46:47;7.37;;;5.41;;
49800;SDS011;35698;50.232;30.540;2023-04-24T05:48:09;9.24;;;5.32;;
49800;SDS011;35698;50.232;30.540;2023-04-24T05:49:20;10.19;;;5.27;;
49800;SDS011;35698;50.232;30.540;2023-04-24T05:50:23;7.30;;;4.84;;
49800;SDS011;35698;50.232;30.540;2023-04-24T05:51:45;6.00;;;4.45;;
49800;SDS011;35698;50.232;30.540;2023-04-24T05:52:56;5.73;;;4.82;;
49800;SDS011;35698;50.232;30.540;2023-04-24T05:54:00;14.33;;;5.28;;
49800;SDS011;35698;50.232;30.540;2023-04-24T05:55:21;6.99;;;4.83;;
49800;SDS011;35698;50.232;30.540;2023-04-24T05:56:36;11.18;;;4.96;;
49800;SDS011;35698;50.232;30.540;2023-04-24T05:57:54;9.16;;;4.93;;
49800;SDS011;35698;50.232;30.540;2023-04-24T05:59:05;11.96;;;5.08;;
49800;SDS011;35698;50.232;30.540;2023-04-24T06:00:27;9.06;;;4.28;;
49800;SDS011;35698;50.232;30.540;2023-04-24T06:01:49;9.21;;;4.36;;
49800;SDS011;35698;50.232;30.540;2023-04-24T06:03:00;12.36;;;3.82;;
49800;SDS011;35698;50.232;30.540;2023-04-24T06:04:21;7.17;;;4.30;;
49800;SDS011;35698;50.232;30.540;2023-04-24T06:05:43;9.14;;;4.28;;
49800;SDS011;35698;50.232;30.540;2023-04-24T06:06:54;9.82;;;4.26;;
49800;SDS011;35698;50.232;30.540;2023-04-24T06:08:16;7.09;;;4.39;;
49800;SDS011;35698;50.232;30.540;2023-04-24T06:09:37;6.80;;;3.98;;
49800;SDS011;35698;50.232;30.540;2023-04-24T06:10:54;10.42;;;4.33;;
49800;SDS011;35698;50.232;30.540;2023-04-24T06:12:15;7.33;;;4.54;;
49800;SDS011;35698;50.232;30.540;2023-04-24T06:13:36;12.58;;;4.34;;
49800;SDS011;35698;50.232;30.540;2023-04-24T06:14:57;16.66;;;4.14;;
49800;SDS011;35698;50.232;30.540;2023-04-24T06:16:18;9.05;;;3.86;;
49800;SDS011;35698;50.232;30.540;2023-04-24T06:17:30;10.03;;;4.28;;
49800;SDS011;35698;50.232;30.540;2023-04-24T06:18:52;9.73;;;3.68;;
49800;SDS011;35698;50.232;30.540;2023-04-24T06:20:09;4.73;;;3.68;;
49800;SDS011;35698;50.232;30.540;2023-04-24T06:21:31;4.19;;;3.21;;
49800;SDS011;35698;50.232;30.540;2023-04-24T06:22:42;7.50;;;3.69;;
49800;SDS011;35698;50.232;30.540;2023-04-24T06:24:03;9.58;;;3.97;;
49800;SDS011;35698;50.232;30.540;2023-04-24T06:25:17;10.00;;;3.48;;
49800;SDS011;35698;50.232;30.540;2023-04-24T06:26:38;7.72;;;3.83;;
49800;SDS011;35698;50.232;30.540;2023-04-24T06:27:50;9.74;;;3.87;;
49800;SDS011;35698;50.232;30.540;2023-04-24T06:28:59;5.80;;;3.58;;
49800;SDS011;35698;50.232;30.540;2023-04-24T06:30:10;5.70;;;3.75;;
49800;SDS011;35698;50.232;30.540;2023-04-24T06:31:14;7.94;;;3.81;;
49800;SDS011;35698;50.232;30.540;2023-04-24T06:32:26;7.11;;;4.12;;
49800;SDS011;35698;50.232;30.540;2023-04-24T06:33:30;5.81;;;3.65;;
49800;SDS011;35698;50.232;30.540;2023-04-24T06:34:41;5.47;;;3.76;;
49800;SDS011;35698;50.232;30.540;2023-04-24T06:35:45;9.46;;;4.42;;
49800;SDS011;35698;50.232;30.540;2023-04-24T06:37:03;12.64;;;6.77;;
49800;SDS011;35698;50.232;30.540;2023-04-24T06:38:06;7.10;;;4.74;;
49800;SDS011;35698;50.232;30.540;2023-04-24T06:39:20;11.78;;;6.53;;
49800;SDS011;35698;50.232;30.540;2023-04-24T06:40:23;9.73;;;4.82;;
49800;SDS011;35698;50.232;30.540;2023-04-24T06:41:38;6.47;;;4.13;;
49800;SDS011;35698;50.232;30.540;2023-04-24T06:42:41;10.94;;;4.18;;
49800;SDS011;35698;50.232;30.540;2023-04-24T06:43:53;8.95;;;3.83;;
49800;SDS011;35698;50.232;30.540;2023-04-24T06:44:56;6.31;;;3.66;;
49800;SDS011;35698;50.232;30.540;2023-04-24T06:46:07;7.06;;;4.01;;
49800;SDS011;35698;50.232;30.540;2023-04-24T06:47:11;7.47;;;4.33;;
49800;SDS011;35698;50.232;30.540;2023-04-24T06:48:25;4.05;;;3.06;;
49800;SDS011;35698;50.232;30.540;2023-04-24T06:49:29;6.80;;;3.38;;
49800;SDS011;35698;50.232;30.540;2023-04-24T06:50:45;4.28;;;3.53;;
49800;SDS011;35698;50.232;30.540;2023-04-24T06:51:48;5.35;;;3.68;;
49800;SDS011;35698;50.232;30.540;2023-04-24T06:52:59;12.71;;;3.46;;
49800;SDS011;35698;50.232;30.540;2023-04-24T06:54:03;7.86;;;3.64;;
49800;SDS011;35698;50.232;30.540;2023-04-24T06:55:14;6.54;;;3.47;;
49800;SDS011;35698;50.232;30.540;2023-04-24T06:56:17;5.67;;;3.33;;
49800;SDS011;35698;50.232;30.540;2023-04-24T06:57:29;5.08;;;3.44;;
49800;SDS011;35698;50.232;30.540;2023-04-24T06:58:32;4.44;;;3.06;;
49800;SDS011;35698;50.232;30.540;2023-04-24T06:59:49;4.54;;;3.04;;
49800;SDS011;35698;50.232;30.540;2023-04-24T07:00:53;6.16;;;3.51;;
49800;SDS011;35698;50.232;30.540;2023-04-24T07:02:04;3.84;;;3.07;;
49800;SDS011;35698;50.232;30.540;2023-04-24T07:03:07;5.77;;;3.24;;
49800;SDS011;35698;50.232;30.540;2023-04-24T07:04:19;7.54;;;4.34;;
49800;SDS011;35698;50.232;30.540;2023-04-24T07:05:22;13.21;;;4.09;;
49800;SDS011;35698;50.232;30.540;2023-04-24T07:06:33;7.43;;;3.63;;
49800;SDS011;35698;50.232;30.540;2023-04-24T07:07:37;5.85;;;3.14;;
49800;SDS011;35698;50.232;30.540;2023-04-24T07:08:49;9.23;;;3.52;;
49800;SDS011;35698;50.232;30.540;2023-04-24T07:09:52;4.79;;;3.26;;
49800;SDS011;35698;50.232;30.540;2023-04-24T07:11:04;4.79;;;3.18;;
49800;SDS011;35698;50.232;30.540;2023-04-24T07:12:07;6.59;;;2.68;;
49800;SDS011;35698;50.232;30.540;2023-04-24T07:13:11;4.36;;;3.14;;
49800;SDS011;35698;50.232;30.540;2023-04-24T07:14:28;5.09;;;3.12;;
49800;SDS011;35698;50.232;30.540;2023-04-24T07:15:31;6.26;;;3.36;;
49800;SDS011;35698;50.232;30.540;2023-04-24T07:16:43;7.62;;;3.49;;
49800;SDS011;35698;50.232;30.540;2023-04-24T07:17:46;7.20;;;4.08;;
49800;SDS011;35698;50.232;30.540;2023-04-24T07:19:04;7.31;;;3.30;;
49800;SDS011;35698;50.232;30.540;2023-04-24T07:20:08;5.46;;;3.16;;
49800;SDS011;35698;50.232;30.540;2023-04-24T07:21:20;4.60;;;3.13;;
49800;SDS011;35698;50.232;30.540;2023-04-24T07:22:23;4.42;;;2.73;;
49800;SDS011;35698;50.232;30.540;2023-04-24T07:23:35;4.79;;;2.82;;
49800;SDS011;35698;50.232;30.540;2023-04-24T07:24:38;4.05;;;2.47;;
49800;SDS011;35698;50.232;30.540;2023-04-24T07:25:49;5.39;;;2.84;;
49800;SDS011;35698;50.232;30.540;2023-04-24T07:26:55;3.91;;;2.58;;
49800;SDS011;35698;50.232;30.540;2023-04-24T07:28:06;5.46;;;2.79;;
49800;SDS011;35698;50.232;30.540;2023-04-24T07:29:12;6.11;;;2.50;;
49800;SDS011;35698;50.232;30.540;2023-04-24T07:30:25;5.05;;;2.51;;
49800;SDS011;35698;50.232;30.540;2023-04-24T07:31:29;2.80;;;2.21;;
49800;SDS011;35698;50.232;30.540;2023-04-24T07:32:40;5.26;;;2.67;;
49800;SDS011;35698;50.232;30.540;2023-04-24T07:33:44;5.52;;;2.41;;
49800;SDS011;35698;50.232;30.540;2023-04-24T07:34:57;4.34;;;2.73;;
49800;SDS011;35698;50.232;30.540;2023-04-24T07:36:00;6.05;;;3.10;;
49800;SDS011;35698;50.232;30.540;2023-04-24T07:37:12;11.76;;;2.69;;
49800;SDS011;35698;50.232;30.540;2023-04-24T07:38:15;4.54;;;2.67;;
49800;SDS011;35698;50.232;30.540;2023-04-24T07:39:19;3.76;;;2.41;;
49800;SDS011;35698;50.232;30.540;2023-04-24T07:40:30;4.35;;;2.57;;
49800;SDS011;35698;50.232;30.540;2023-04-24T07:41:33;2.86;;;1.76;;
49800;SDS011;35698;50.232;30.540;2023-04-24T07:42:44;4.21;;;1.95;;
49800;SDS011;35698;50.232;30.540;2023-04-24T07:43:47;3.47;;;1.76;;
49800;SDS011;35698;50.232;30.540;2023-04-24T07:45:02;8.24;;;3.25;;
49800;SDS011;35698;50.232;30.540;2023-04-24T07:46:06;5.41;;;2.20;;
49800;SDS011;35698;50.232;30.540;2023-04-24T07:47:20;4.30;;;2.00;;
49800;SDS011;35698;50.232;30.540;2023-04-24T07:48:23;3.39;;;2.31;;
49800;SDS011;35698;50.232;30.540;2023-04-24T07:49:43;5.20;;;2.49;;
49800;SDS011;35698;50.232;30.540;2023-04-24T07:50:47;4.35;;;2.30;;
49800;SDS011;35698;50.232;30.540;2023-04-24T07:52:05;3.36;;;2.33;;
49800;SDS011;35698;50.232;30.540;2023-04-24T07:53:08;4.69;;;2.46;;
49800;SDS011;35698;50.232;30.540;2023-04-24T07:54:21;6.18;;;2.31;;
49800;SDS011;35698;50.232;30.540;2023-04-24T07:55:24;3.37;;;2.31;;
49800;SDS011;35698;50.232;30.540;2023-04-24T07:56:39;4.60;;;2.17;;
49800;SDS011;35698;50.232;30.540;2023-04-24T07:57:43;4.49;;;2.36;;
49800;SDS011;35698;50.232;30.540;2023-04-24T07:58:55;3.08;;;1.94;;
49800;SDS011;35698;50.232;30.540;2023-04-24T07:59:58;3.69;;;1.92;;
49800;SDS011;35698;50.232;30.540;2023-04-24T08:11:41;3.40;;;2.22;;
49800;SDS011;35698;50.232;30.540;2023-04-24T08:12:44;5.30;;;2.10;;
49800;SDS011;35698;50.232;30.540;2023-04-24T08:14:01;4.11;;;2.01;;
49800;SDS011;35698;50.232;30.540;2023-04-24T08:15:05;3.66;;;2.41;;
49800;SDS011;35698;50.232;30.540;2023-04-24T08:16:09;5.59;;;2.12;;
49800;SDS011;35698;50.232;30.540;2023-04-24T08:17:13;5.83;;;2.32;;
49800;SDS011;35698;50.232;30.540;2023-04-24T08:18:27;6.47;;;2.29;;
49800;SDS011;35698;50.232;30.540;2023-04-24T08:19:30;3.99;;;2.07;;
49800;SDS011;35698;50.232;30.540;2023-04-24T08:20:42;8.48;;;2.44;;
49800;SDS011;35698;50.232;30.540;2023-04-24T08:21:46;5.95;;;2.03;;
49800;SDS011;35698;50.232;30.540;2023-04-24T08:23:07;3.37;;;2.39;;
49800;SDS011;35698;50.232;30.540;2023-04-24T08:24:21;4.00;;;2.13;;
49800;SDS011;35698;50.232;30.540;2023-04-24T08:25:25;3.81;;;2.41;;
49800;SDS011;35698;50.232;30.540;2023-04-24T08:26:46;12.22;;;2.44;;
49800;SDS011;35698;50.232;30.540;2023-04-24T08:28:05;5.59;;;2.32;;
49800;SDS011;35698;50.232;30.540;2023-04-24T08:29:09;7.00;;;2.34;;
49800;SDS011;35698;50.232;30.540;2023-04-24T08:30:30;4.92;;;2.24;;
49800;SDS011;35698;50.232;30.540;2023-04-24T08:31:51;12.19;;;2.27;;
49800;SDS011;35698;50.232;30.540;2023-04-24T08:33:03;3.00;;;1.95;;
49800;SDS011;35698;50.232;30.540;2023-04-24T08:34:06;10.69;;;2.38;;
49800;SDS011;35698;50.232;30.540;2023-04-24T08:35:31;2.74;;;1.74;;
49800;SDS011;35698;50.232;30.540;2023-04-24T08:36:54;4.02;;;1.92;;
49800;SDS011;35698;50.232;30.540;2023-04-24T08:39:00;3.08;;;2.02;;
49800;SDS011;35698;50.232;30.540;2023-04-24T08:40:06;3.12;;;1.87;;
49800;SDS011;35698;50.232;30.540;2023-04-24T08:41:28;5.30;;;2.02;;
49800;SDS011;35698;50.232;30.540;2023-04-24T08:42:51;4.64;;;1.80;;
49800;SDS011;35698;50.232;30.540;2023-04-24T08:44:11;4.96;;;2.08;;
49800;SDS011;35698;50.232;30.540;2023-04-24T08:45:33;5.13;;;2.12;;
49800;SDS011;35698;50.232;30.540;2023-04-24T08:46:57;5.84;;;2.16;;
49800;SDS011;35698;50.232;30.540;2023-04-24T08:49:27;3.51;;;1.96;;
49800;SDS011;35698;50.232;30.540;2023-04-24T08:50:39;4.31;;;1.91;;
49800;SDS011;35698;50.232;30.540;2023-04-24T08:51:55;2.14;;;1.82;;
49800;SDS011;35698;50.232;30.540;2023-04-24T08:53:17;2.31;;;1.45;;
49800;SDS011;35698;50.232;30.540;2023-04-24T08:54:41;5.82;;;2.12;;
49800;SDS011;35698;50.232;30.540;2023-04-24T08:56:07;7.18;;;1.67;;
49800;SDS011;35698;50.232;30.540;2023-04-24T08:57:21;2.48;;;1.75;;
49800;SDS011;35698;50.232;30.540;2023-04-24T08:58:36;6.19;;;2.64;;
49800;SDS011;35698;50.232;30.540;2023-04-24T08:59:39;6.61;;;1.93;;
49800;SDS011;35698;50.232;30.540;2023-04-24T09:00:54;3.64;;;1.76;;
49800;SDS011;35698;50.232;30.540;2023-04-24T09:01:59;5.97;;;1.87;;
49800;SDS011;35698;50.232;30.540;2023-04-24T09:03:11;4.89;;;2.09;;
49800;SDS011;35698;50.232;30.540;2023-04-24T09:04:16;8.03;;;2.10;;
49800;SDS011;35698;50.232;30.540;2023-04-24T09:05:30;3.21;;;1.55;;
49800;SDS011;35698;50.232;30.540;2023-04-24T09:06:34;2.26;;;1.59;;
49800;SDS011;35698;50.232;30.540;2023-04-24T09:07:45;3.48;;;1.50;;
49800;SDS011;35698;50.232;30.540;2023-04-24T09:08:55;5.95;;;1.63;;
49800;SDS011;35698;50.232;30.540;2023-04-24T09:10:13;5.69;;;1.83;;
49800;SDS011;35698;50.232;30.540;2023-04-24T09:11:17;3.34;;;1.58;;
49800;SDS011;35698;50.232;30.540;2023-04-24T09:12:29;8.56;;;2.35;;
49800;SDS011;35698;50.232;30.540;2023-04-24T09:13:32;2.29;;;1.91;;
49800;SDS011;35698;50.232;30.540;2023-04-24T09:14:46;3.21;;;1.53;;
49800;SDS011;35698;50.232;30.540;2023-04-24T09:15:58;3.44;;;1.61;;
49800;SDS011;35698;50.232;30.540;2023-04-24T09:17:11;3.76;;;1.67;;
49800;SDS011;35698;50.232;30.540;2023-04-24T09:18:21;2.95;;;1.71;;
49800;SDS011;35698;50.232;30.540;2023-04-24T09:20:00;2.89;;;1.73;;
49800;SDS011;35698;50.232;30.540;2023-04-24T09:22:37;3.54;;;1.89;;
49800;SDS011;35698;50.232;30.540;2023-04-24T09:24:04;8.03;;;2.19;;
49800;SDS011;35698;50.232;30.540;2023-04-24T09:25:25;10.56;;;1.90;;
49800;SDS011;35698;50.232;30.540;2023-04-24T09:26:42;5.82;;;2.16;;
49800;SDS011;35698;50.232;30.540;2023-04-24T09:29:13;9.87;;;3.81;;
49800;SDS011;35698;50.232;30.540;2023-04-24T09:30:21;7.69;;;4.27;;
49800;SDS011;35698;50.232;30.540;2023-04-24T09:31:40;5.65;;;4.14;;
49800;SDS011;35698;50.232;30.540;2023-04-24T09:32:43;4.22;;;2.13;;
49800;SDS011;35698;50.232;30.540;2023-04-24T09:33:59;3.85;;;1.77;;
49800;SDS011;35698;50.232;30.540;2023-04-24T09:36:39;4.45;;;1.36;;
49800;SDS011;35698;50.232;30.540;2023-04-24T09:37:52;5.15;;;1.87;;
49800;SDS011;35698;50.232;30.540;2023-04-24T09:38:59;2.77;;;1.65;;
49800;SDS011;35698;50.232;30.540;2023-04-24T09:40:22;4.53;;;1.73;;
49800;SDS011;35698;50.232;30.540;2023-04-24T09:41:34;3.04;;;1.85;;
49800;SDS011;35698;50.232;30.540;2023-04-24T09:42:37;4.53;;;1.69;;
49800;SDS011;35698;50.232;30.540;2023-04-24T09:44:15;2.17;;;1.49;;
49800;SDS011;35698;50.232;30.540;2023-04-24T09:45:37;7.30;;;1.94;;
49800;SDS011;35698;50.232;30.540;2023-04-24T09:46:42;5.96;;;1.77;;
49800;SDS011;35698;50.232;30.540;2023-04-24T09:48:09;3.03;;;1.60;;
49800;SDS011;35698;50.232;30.540;2023-04-24T09:49:24;5.29;;;1.86;;
49800;SDS011;35698;50.232;30.540;2023-04-24T09:50:31;6.50;;;2.05;;
49800;SDS011;35698;50.232;30.540;2023-04-24T09:52:03;4.29;;;1.98;;
49800;SDS011;35698;50.232;30.540;2023-04-24T09:53:25;3.31;;;1.74;;
49800;SDS011;35698;50.232;30.540;2023-04-24T09:54:28;3.04;;;1.75;;
49800;SDS011;35698;50.232;30.540;2023-04-24T09:55:50;4.51;;;1.58;;
49800;SDS011;35698;50.232;30.540;2023-04-24T09:57:11;2.26;;;1.77;;
49800;SDS011;35698;50.232;30.540;2023-04-24T09:58:14;2.26;;;1.50;;
49800;SDS011;35698;50.232;30.540;2023-04-24T09:59:38;4.74;;;1.89;;
49800;SDS011;35698;50.232;30.540;2023-04-24T10:00:56;2.52;;;1.62;;
49800;SDS011;35698;50.232;30.540;2023-04-24T10:02:00;6.34;;;1.42;;
49800;SDS011;35698;50.232;30.540;2023-04-24T10:03:23;3.34;;;1.61;;
49800;SDS011;35698;50.232;30.540;2023-04-24T10:04:36;3.85;;;1.56;;
49800;SDS011;35698;50.232;30.540;2023-04-24T10:05:45;1.86;;;1.53;;
49800;SDS011;35698;50.232;30.540;2023-04-24T10:06:57;2.08;;;1.53;;
49800;SDS011;35698;50.232;30.540;2023-04-24T10:08:14;3.32;;;2.16;;
49800;SDS011;35698;50.232;30.540;2023-04-24T10:09:28;3.21;;;1.87;;
49800;SDS011;35698;50.232;30.540;2023-04-24T10:10:44;5.56;;;1.87;;
49800;SDS011;35698;50.232;30.540;2023-04-24T10:11:50;5.61;;;2.00;;
49800;SDS011;35698;50.232;30.540;2023-04-24T10:13:02;3.80;;;2.07;;
49800;SDS011;35698;50.232;30.540;2023-04-24T10:14:06;5.31;;;2.72;;
49800;SDS011;35698;50.232;30.540;2023-04-24T10:15:20;6.29;;;2.34;;
49800;SDS011;35698;50.232;30.540;2023-04-24T10:16:24;4.34;;;1.99;;
49800;SDS011;35698;50.232;30.540;2023-04-24T10:17:37;5.33;;;1.36;;
49800;SDS011;35698;50.232;30.540;2023-04-24T10:18:41;2.65;;;1.80;;
49800;SDS011;35698;50.232;30.540;2023-04-24T10:19:52;2.72;;;1.72;;
49800;SDS011;35698;50.232;30.540;2023-04-24T10:20:56;5.33;;;1.82;;
49800;SDS011;35698;50.232;30.540;2023-04-24T10:22:10;2.12;;;1.65;;
49800;SDS011;35698;50.232;30.540;2023-04-24T10:23:14;2.00;;;1.64;;
49800;SDS011;35698;50.232;30.540;2023-04-24T10:24:25;2.20;;;1.48;;
49800;SDS011;35698;50.232;30.540;2023-04-24T10:25:29;2.72;;;1.86;;
49800;SDS011;35698;50.232;30.540;2023-04-24T10:26:34;3.90;;;1.74;;
49800;SDS011;35698;50.232;30.540;2023-04-24T10:27:46;3.60;;;1.97;;
49800;SDS011;35698;50.232;30.540;2023-04-24T10:28:50;2.88;;;1.90;;
49800;SDS011;35698;50.232;30.540;2023-04-24T10:30:02;3.22;;;1.89;;
49800;SDS011;35698;50.232;30.540;2023-04-24T10:31:06;2.34;;;1.89;;
49800;SDS011;35698;50.232;30.540;2023-04-24T10:32:28;4.71;;;2.22;;
49800;SDS011;35698;50.232;30.540;2023-04-24T10:33:31;5.78;;;2.35;;
49800;SDS011;35698;50.232;30.540;2023-04-24T10:34:43;7.78;;;2.75;;
49800;SDS011;35698;50.232;30.540;2023-04-24T10:35:46;3.46;;;1.98;;
49800;SDS011;35698;50.232;30.540;2023-04-24T10:37:11;3.91;;;2.01;;
49800;SDS011;35698;50.232;30.540;2023-04-24T10:38:25;4.93;;;2.18;;
49800;SDS011;35698;50.232;30.540;2023-04-24T10:39:31;7.50;;;2.19;;
49800;SDS011;35698;50.232;30.540;2023-04-24T10:41:09;4.28;;;2.26;;
49800;SDS011;35698;50.232;30.540;2023-04-24T10:42:29;4.89;;;2.03;;
49800;SDS011;35698;50.232;30.540;2023-04-24T10:43:32;4.22;;;2.44;;
49800;SDS011;35698;50.232;30.540;2023-04-24T10:44:54;5.36;;;1.92;;
49800;SDS011;35698;50.232;30.540;2023-04-24T10:46:06;4.67;;;2.34;;
49800;SDS011;35698;50.232;30.540;2023-04-24T10:47:19;5.50;;;2.80;;
49800;SDS011;35698;50.232;30.540;2023-04-24T10:48:41;4.01;;;2.06;;
49800;SDS011;35698;50.232;30.540;2023-04-24T10:49:54;4.02;;;1.93;;
49800;SDS011;35698;50.232;30.540;2023-04-24T10:51:01;2.27;;;1.91;;
49800;SDS011;35698;50.232;30.540;2023-04-24T10:52:22;3.16;;;2.02;;
49800;SDS011;35698;50.232;30.540;2023-04-24T10:53:35;5.35;;;2.08;;
49800;SDS011;35698;50.232;30.540;2023-04-24T10:54:46;4.32;;;1.62;;
49800;SDS011;35698;50.232;30.540;2023-04-24T10:56:06;5.88;;;2.33;;
49800;SDS011;35698;50.232;30.540;2023-04-24T10:57:29;5.56;;;1.83;;
49800;SDS011;35698;50.232;30.540;2023-04-24T10:58:41;8.59;;;1.92;;
49800;SDS011;35698;50.232;30.540;2023-04-24T10:59:46;2.54;;;1.94;;
49800;SDS011;35698;50.232;30.540;2023-04-24T11:00:57;2.45;;;1.64;;
49800;SDS011;35698;50.232;30.540;2023-04-24T11:02:13;3.55;;;1.84;;
49800;SDS011;35698;50.232;30.540;2023-04-24T11:03:26;2.82;;;2.04;;
49800;SDS011;35698;50.232;30.540;2023-04-24T11:04:49;2.44;;;2.11;;
49800;SDS011;35698;50.232;30.540;2023-04-24T11:06:09;4.46;;;1.76;;
49800;SDS011;35698;50.232;30.540;2023-04-24T11:07:20;4.27;;;2.06;;
49800;SDS011;35698;50.232;30.540;2023-04-24T11:08:27;3.06;;;1.80;;
49800;SDS011;35698;50.232;30.540;2023-04-24T11:09:41;10.23;;;2.09;;
49800;SDS011;35698;50.232;30.540;2023-04-24T11:12:06;5.26;;;2.39;;
49800;SDS011;35698;50.232;30.540;2023-04-24T11:15:09;3.17;;;2.16;;
49800;SDS011;35698;50.232;30.540;2023-04-24T11:17:33;4.11;;;2.06;;
49800;SDS011;35698;50.232;30.540;2023-04-24T11:20:23;4.88;;;1.79;;
49800;SDS011;35698;50.232;30.540;2023-04-24T11:23:00;3.18;;;1.84;;
49800;SDS011;35698;50.232;30.540;2023-04-24T11:26:09;3.50;;;1.86;;
49800;SDS011;35698;50.232;30.540;2023-04-24T11:27:38;3.04;;;1.48;;
49800;SDS011;35698;50.232;30.540;2023-04-24T11:28:52;4.86;;;1.74;;
49800;SDS011;35698;50.232;30.540;2023-04-24T11:31:39;3.25;;;1.36;;
49800;SDS011;35698;50.232;30.540;2023-04-24T11:33:04;12.07;;;2.03;;
49800;SDS011;35698;50.232;30.540;2023-04-24T11:34:22;1.34;;;1.19;;
49800;SDS011;35698;50.232;30.540;2023-04-24T11:35:25;6.79;;;1.62;;
49800;SDS011;35698;50.232;30.540;2023-04-24T11:37:51;3.76;;;2.00;;
49800;SDS011;35698;50.232;30.540;2023-04-24T11:39:06;1.53;;;1.41;;
49800;SDS011;35698;50.232;30.540;2023-04-24T11:40:10;3.53;;;1.96;;
49800;SDS011;35698;50.232;30.540;2023-04-24T11:41:33;6.31;;;2.01;;
49800;SDS011;35698;50.232;30.540;2023-04-24T11:42:52;2.60;;;1.38;;
49800;SDS011;35698;50.232;30.540;2023-04-24T11:43:56;4.84;;;1.78;;
49800;SDS011;35698;50.232;30.540;2023-04-24T11:45:20;2.79;;;1.66;;
49800;SDS011;35698;50.232;30.540;2023-04-24T11:46:37;2.70;;;1.63;;
49800;SDS011;35698;50.232;30.540;2023-04-24T11:47:40;2.58;;;1.47;;
49800;SDS011;35698;50.232;30.540;2023-04-24T11:49:03;8.51;;;2.14;;
49800;SDS011;35698;50.232;30.540;2023-04-24T11:50:34;3.35;;;1.64;;
49800;SDS011;35698;50.232;30.540;2023-04-24T11:51:38;4.09;;;1.63;;
49800;SDS011;35698;50.232;30.540;2023-04-24T11:52:49;2.68;;;1.29;;
49800;SDS011;35698;50.232;30.540;2023-04-24T11:54:01;3.91;;;1.81;;
49800;SDS011;35698;50.232;30.540;2023-04-24T11:56:34;3.39;;;1.91;;
49800;SDS011;35698;50.232;30.540;2023-04-24T11:57:37;2.64;;;1.56;;
49800;SDS011;35698;50.232;30.540;2023-04-24T11:58:59;4.69;;;1.88;;
49800;SDS011;35698;50.232;30.540;2023-04-24T12:03:17;4.08;;;1.63;;
49800;SDS011;35698;50.232;30.540;2023-04-24T12:04:40;1.95;;;1.47;;
49800;SDS011;35698;50.232;30.540;2023-04-24T12:05:51;3.94;;;1.70;;
49800;SDS011;35698;50.232;30.540;2023-04-24T12:07:04;1.96;;;1.60;;
49800;SDS011;35698;50.232;30.540;2023-04-24T12:08:28;3.92;;;1.89;;
49800;SDS011;35698;50.232;30.540;2023-04-24T12:09:56;4.14;;;1.50;;
49800;SDS011;35698;50.232;30.540;2023-04-24T12:11:04;2.63;;;1.75;;
49800;SDS011;35698;50.232;30.540;2023-04-24T12:12:27;3.54;;;1.58;;
49800;SDS011;35698;50.232;30.540;2023-04-24T12:13:44;2.58;;;1.81;;
49800;SDS011;35698;50.232;30.540;2023-04-24T12:14:48;4.05;;;1.72;;
49800;SDS011;35698;50.232;30.540;2023-04-24T12:16:11;1.91;;;1.73;;
49800;SDS011;35698;50.232;30.540;2023-04-24T12:17:29;4.78;;;1.82;;
49800;SDS011;35698;50.232;30.540;2023-04-24T12:18:42;2.48;;;1.68;;
49800;SDS011;35698;50.232;30.540;2023-04-24T12:19:47;4.49;;;2.11;;
49800;SDS011;35698;50.232;30.540;2023-04-24T12:22:49;2.32;;;1.89;;
49800;SDS011;35698;50.232;30.540;2023-04-24T12:23:58;4.61;;;2.06;;
49800;SDS011;35698;50.232;30.540;2023-04-24T12:26:42;4.49;;;2.09;;
49800;SDS011;35698;50.232;30.540;2023-04-24T12:27:54;4.63;;;2.01;;
49800;SDS011;35698;50.232;30.540;2023-04-24T12:29:01;5.18;;;2.19;;
49800;SDS011;35698;50.232;30.540;2023-04-24T12:30:09;2.85;;;1.67;;
49800;SDS011;35698;50.232;30.540;2023-04-24T12:31:24;12.11;;;2.37;;
49800;SDS011;35698;50.232;30.540;2023-04-24T12:32:27;4.08;;;1.87;;
49800;SDS011;35698;50.232;30.540;2023-04-24T12:33:38;4.23;;;2.06;;
49800;SDS011;35698;50.232;30.540;2023-04-24T12:34:43;1.78;;;1.59;;
49800;SDS011;35698;50.232;30.540;2023-04-24T12:35:56;3.26;;;1.96;;
49800;SDS011;35698;50.232;30.540;2023-04-24T12:37:09;3.17;;;2.39;;
49800;SDS011;35698;50.232;30.540;2023-04-24T12:38:21;3.24;;;1.86;;
49800;SDS011;35698;50.232;30.540;2023-04-24T12:39:34;1.91;;;1.63;;
49800;SDS011;35698;50.232;30.540;2023-04-24T12:40:37;2.61;;;1.86;;
49800;SDS011;35698;50.232;30.540;2023-04-24T12:41:49;6.69;;;1.98;;
49800;SDS011;35698;50.232;30.540;2023-04-24T12:43:15;2.88;;;1.79;;
49800;SDS011;35698;50.232;30.540;2023-04-24T12:44:19;3.84;;;1.91;;
49800;SDS011;35698;50.232;30.540;2023-04-24T12:45:31;3.23;;;1.78;;
49800;SDS011;35698;50.232;30.540;2023-04-24T12:46:34;3.85;;;2.08;;
49800;SDS011;35698;50.232;30.540;2023-04-24T12:47:37;5.41;;;2.06;;
49800;SDS011;35698;50.232;30.540;2023-04-24T12:48:41;2.06;;;1.74;;
49800;SDS011;35698;50.232;30.540;2023-04-24T12:49:45;2.23;;;2.04;;
49800;SDS011;35698;50.232;30.540;2023-04-24T12:50:48;4.94;;;2.19;;
49800;SDS011;35698;50.232;30.540;2023-04-24T12:51:51;2.47;;;2.22;;
49800;SDS011;35698;50.232;30.540;2023-04-24T12:53:02;3.58;;;2.09;;
49800;SDS011;35698;50.232;30.540;2023-04-24T12:54:05;2.68;;;1.90;;
49800;SDS011;35698;50.232;30.540;2023-04-24T12:55:09;5.56;;;1.85;;
49800;SDS011;35698;50.232;30.540;2023-04-24T12:56:21;4.52;;;1.84;;
49800;SDS011;35698;50.232;30.540;2023-04-24T12:57:24;4.31;;;2.04;;
49800;SDS011;35698;50.232;30.540;2023-04-24T12:58:36;3.54;;;1.93;;
49800;SDS011;35698;50.232;30.540;2023-04-24T12:59:39;6.62;;;1.82;;
49800;SDS011;35698;50.232;30.540;2023-04-24T13:00:43;2.42;;;1.91;;
49800;SDS011;35698;50.232;30.540;2023-04-24T13:01:54;4.20;;;1.63;;
49800;SDS011;35698;50.232;30.540;2023-04-24T13:02:57;3.61;;;1.51;;
49800;SDS011;35698;50.232;30.540;2023-04-24T13:04:08;2.76;;;1.76;;
49800;SDS011;35698;50.232;30.540;2023-04-24T13:05:12;7.11;;;1.82;;